YLBO weather

Lake Bolac Airport
Victoria, Australia

Public forecast

Using degrees Celsius for public forecast. Weather courtesy of forecast.io.

Closest aviation weather report (METAR) to Lake Bolac Airport

Closest report is Avalon Airport, 78.2 nm (144.8 km) ESE. Retrieved 2019/10/14 11:30 UTC (13 minutes ago):

YMAV 141130Z AUTO 19009KT 9999 // BKN017 OVC021 14/12 Q1015

Closest aviation forecast (TAF) to Lake Bolac Airport

Forecast is more than 6 hours old.

Closest forecast is Avalon Airport, 78.2 nm (144.8 km) ESE. Retrieved 2019-10-14 00:00 UTC (12 hours ago):

TAF YMAV 132306Z 1400/1424 27008KT 9999 -SHRA SCT025 SCT040 FM140500 19010KT 9999 FEW015 BKN025 FM141200 23006KT 9999 SCT015 BKN020 INTER 1406/1409 5000 SHRA BKN015